Time;durP1;ratioP1;P1;durP2;ratioP2;P2;SDS_P1;SDS_P2;PMS_P1;PMS_P2;Temp;Humidity;BMP_temperature;BMP_pressure;BME280_temperature;BME280_humidity;BME280_pressure;Samples;Min_cycle;Max_cycle;Signal;HPM_P1;HPM_P2
2023/10/09 00:03:09;;;;;;;1999.90;999.90;;;;;;;15.37;100.00;101919.22;10611218;27;20108;-69
2023/10/09 00:08:21;;;;;;;1999.90;999.90;;;;;;;15.26;100.00;101915.53;10626186;27;20480;-69
2023/10/09 00:13:31;;;;;;;1999.90;999.90;;;;;;;15.26;100.00;101911.09;10626681;27;20051;-69
2023/10/09 00:18:34;;;;;;;1999.90;999.90;;;;;;;15.20;100.00;101890.38;10625816;27;20500;-69
2023/10/09 00:23:36;;;;;;;1999.90;999.90;;;;;;;15.27;100.00;101888.22;10608121;27;20047;-69
2023/10/09 00:28:47;;;;;;;1999.90;999.90;;;;;;;15.28;100.00;101884.63;10590968;27;20075;-69
2023/10/09 00:33:49;;;;;;;1999.90;999.90;;;;;;;15.37;100.00;101905.19;10625965;27;20535;-69
2023/10/09 00:38:52;;;;;;;1999.90;999.90;;;;;;;15.39;100.00;101900.66;10590028;27;20054;-69
2023/10/09 00:43:59;;;;;;;1999.90;999.90;;;;;;;15.33;100.00;101901.03;10625558;27;20058;-69
2023/10/09 00:49:02;;;;;;;1999.90;999.90;;;;;;;15.31;100.00;101903.75;10625427;27;20043;-69
2023/10/09 00:54:14;;;;;;;1999.90;999.90;;;;;;;15.33;100.00;101895.75;10624770;27;20043;-69
2023/10/09 00:59:20;;;;;;;1999.90;999.90;;;;;;;15.45;100.00;101880.97;10625098;27;20062;-69
2023/10/09 01:04:26;;;;;;;1999.90;999.90;;;;;;;15.45;100.00;101879.19;10606578;27;20051;-69
2023/10/09 01:09:29;;;;;;;1999.90;999.90;;;;;;;15.40;100.00;101891.81;10606917;27;20043;-69
2023/10/09 01:14:36;;;;;;;1999.90;999.90;;;;;;;15.42;100.00;101887.28;10624651;27;20114;-69
2023/10/09 01:19:39;;;;;;;1999.90;999.90;;;;;;;15.38;100.00;101876.06;10591226;28;20053;-69
2023/10/09 01:24:41;;;;;;;1999.90;999.90;;;;;;;15.44;100.00;101866.94;10606351;28;20054;-69
2023/10/09 01:29:45;;;;;;;1999.90;999.90;;;;;;;15.52;100.00;101867.31;10624558;28;20050;-68
2023/10/09 01:34:49;;;;;;;1999.90;999.90;;;;;;;15.52;100.00;101872.59;10623974;28;20051;-69
2023/10/09 01:39:59;;;;;;;1999.90;999.90;;;;;;;15.53;100.00;101857.59;10624222;28;20096;-69
2023/10/09 01:45:11;;;;;;;1999.90;999.90;;;;;;;15.49;100.00;101856.94;10624221;28;20047;-69
2023/10/09 01:50:20;;;;;;;;;;;;;;;15.51;100.00;101870.03;10619337;22;20056;-64
2023/10/09 01:55:59;;;;;;;1999.90;999.90;;;;;;;15.57;100.00;101857.31;10581512;28;20308;-64
2023/10/09 02:00:55;;;;;;;1999.90;999.90;;;;;;;15.53;100.00;101849.66;10576883;28;20441;-64
2023/10/09 02:06:00;;;;;;;1999.90;999.90;;;;;;;15.52;100.00;101846.19;10571150;28;20047;-64
2023/10/09 02:11:03;;;;;;;1999.90;999.90;;;;;;;15.51;100.00;101855.03;10589135;28;20043;-64
2023/10/09 02:17:02;;;;;;;1999.90;999.90;;;;;;;15.50;100.00;101847.22;10571084;28;20047;-64
2023/10/09 02:21:34;;;;;;;1999.90;999.90;;;;;;;15.49;100.00;101841.09;10577581;28;20082;-63
2023/10/09 02:31:51;;;;;;;1999.90;999.90;;;;;;;15.51;100.00;101835.72;10588339;28;20163;-64
2023/10/09 02:37:05;;;;;;;1999.90;999.90;;;;;;;15.55;100.00;101816.09;10588207;28;20058;-64
2023/10/09 02:47:17;;;;;;;1999.90;999.90;;;;;;;15.51;100.00;101799.63;10569018;28;20079;-64
2023/10/09 02:52:25;;;;;;;1999.90;999.90;;;;;;;15.53;100.00;101800.41;10587038;28;20055;-64
2023/10/09 02:57:36;;;;;;;1999.90;999.90;;;;;;;15.55;100.00;101798.50;10587349;28;20054;-64
2023/10/09 03:02:39;;;;;;;1999.90;999.90;;;;;;;15.55;100.00;101777.38;10569731;28;20488;-64
2023/10/09 03:07:44;;;;;;;1999.90;999.90;;;;;;;15.50;100.00;101774.19;10586870;28;20070;-64
2023/10/09 03:12:51;;;;;;;1999.90;999.90;;;;;;;15.64;100.00;101770.66;10586243;28;20126;-64
2023/10/09 03:17:53;;;;;;;1999.90;999.90;;;;;;;15.63;100.00;101776.88;10586570;28;20052;-64
2023/10/09 03:22:57;;;;;;;1999.90;999.90;;;;;;;15.56;100.00;101765.03;10586286;28;20043;-64
2023/10/09 03:28:00;;;;;;;1999.90;999.90;;;;;;;15.66;100.00;101771.41;10586024;28;20039;-64
2023/10/09 03:33:04;;;;;;;1999.90;999.90;;;;;;;15.57;100.00;101761.47;10585878;28;20125;-64
2023/10/09 03:38:15;;;;;;;1999.90;999.90;;;;;;;15.55;100.00;101760.69;10567872;28;20047;-64
2023/10/09 03:43:19;;;;;;;1999.90;999.90;;;;;;;15.57;100.00;101740.34;10584929;28;20402;-64
2023/10/09 03:48:25;;;;;;;1999.90;999.90;;;;;;;15.53;100.00;101757.28;10584600;28;20052;-64
2023/10/09 03:53:30;;;;;;;1999.90;999.90;;;;;;;15.60;100.00;101759.47;10584417;28;20139;-64
2023/10/09 03:58:34;;;;;;;1999.90;999.90;;;;;;;15.59;100.00;101749.00;10584301;28;20054;-64
2023/10/09 04:03:38;;;;;;;1999.90;999.90;;;;;;;15.55;100.00;101756.28;10584165;28;20407;-64
2023/10/09 04:08:47;;;;;;;1999.90;999.90;;;;;;;15.66;100.00;101752.09;10584362;28;20050;-64
2023/10/09 04:13:51;;;;;;;1999.90;999.90;;;;;;;15.60;100.00;101750.69;10583665;28;20087;-64
2023/10/09 04:18:56;;;;;;;1999.90;999.90;;;;;;;15.64;100.00;101751.34;10566203;28;20054;-64
2023/10/09 04:24:42;;;;;;;1999.90;999.90;;;;;;;15.64;100.00;101754.84;10583704;28;20143;-64
2023/10/09 04:29:27;;;;;;;1999.90;999.90;;;;;;;15.64;100.00;101783.03;10569536;28;20070;-64
2023/10/09 04:34:36;;;;;;;1999.90;999.90;;;;;;;15.64;100.00;101790.94;10566081;28;20043;-64
2023/10/09 04:39:46;;;;;;;1999.90;999.90;;;;;;;15.63;100.00;101789.25;10583347;28;20065;-64
2023/10/09 04:55:18;;;;;;;1999.90;999.90;;;;;;;15.59;100.00;101784.16;10564761;28;20130;-64
2023/10/09 05:16:29;;;;;;;1999.90;999.90;;;;;;;15.57;100.00;101761.47;10581666;28;20078;-63
2023/10/09 05:21:36;;;;;;;1999.90;999.90;;;;;;;15.55;100.00;101776.50;10565157;28;20496;-64
2023/10/09 05:37:17;;;;;;;;;;;;;;;15.54;100.00;101795.94;10569874;28;20059;-64
2023/10/09 05:42:21;;;;;;;1999.90;999.90;;;;;;;15.56;100.00;101796.69;10589869;28;20390;-64
2023/10/09 05:47:53;;;;;;;1999.90;999.90;;;;;;;15.56;100.00;101808.09;10590159;28;20077;-63
2023/10/09 06:13:47;;;;;;;1999.90;999.90;;;;;;;15.51;100.00;101830.44;10572949;28;20127;-64
2023/10/09 06:19:07;;;;;;;1999.90;999.90;;;;;;;15.56;100.00;101850.31;10588301;28;20381;-64
2023/10/09 06:24:17;;;;;;;1999.90;999.90;;;;;;;15.47;100.00;101874.66;10588185;28;20555;-64
2023/10/09 06:29:35;;;;;;;1999.90;999.90;;;;;;;15.51;100.00;101868.25;10569817;28;20048;-64
2023/10/09 06:34:44;;;;;;;1999.90;999.90;;;;;;;15.56;100.00;101866.16;10588363;28;20116;-64
2023/10/09 06:45:16;;;;;;;1999.90;999.90;;;;;;;15.66;100.00;101808.38;10587219;28;20449;-64
2023/10/09 06:55:36;;;;;;;1999.90;999.90;;;;;;;15.61;100.00;101852.69;10569092;28;20416;-64
2023/10/09 07:06:05;;;;;;;1999.90;999.90;;;;;;;15.67;100.00;101835.59;10587045;28;20052;-64
2023/10/09 07:11:57;;;;;;;1999.90;999.90;;;;;;;15.73;100.00;101812.31;10586788;28;20054;-64
2023/10/09 07:17:00;;;;;;;1999.90;999.90;;;;;;;15.84;100.00;101829.34;10585991;28;20047;-64
2023/10/09 07:22:03;;;;;;;1999.90;999.90;;;;;;;15.77;100.00;101858.75;10585844;28;20462;-64
2023/10/09 07:27:15;;;;;;;1999.90;999.90;;;;;;;15.81;100.00;101869.97;10567474;28;20449;-64
2023/10/09 07:32:21;;;;;;;1999.90;999.90;;;;;;;15.88;100.00;101881.00;10585206;28;20415;-64
2023/10/09 07:37:30;;;;;;;1999.90;999.90;;;;;;;15.87;100.00;101866.94;10567548;28;20054;-64
2023/10/09 07:42:43;;;;;;;1999.90;999.90;;;;;;;15.86;100.00;101867.88;10584983;28;20048;-64
2023/10/09 07:53:14;;;;;;;1999.90;999.90;;;;;;;15.92;100.00;101888.63;10584422;28;20052;-64
2023/10/09 07:58:24;;;;;;;1999.90;999.90;;;;;;;15.99;100.00;101857.41;10584968;28;20100;-64
2023/10/09 08:03:33;;;;;;;1999.90;999.90;;;;;;;16.05;100.00;101808.59;10584060;28;20052;-64
2023/10/09 08:08:39;;;;;;;1999.90;999.90;;;;;;;16.15;100.00;101796.50;10584388;28;20039;-64
2023/10/09 08:14:01;;;;;;;1999.90;999.90;;;;;;;16.29;100.00;101756.81;10584346;28;20056;-64
2023/10/09 08:19:53;;;;;;;1999.90;999.90;;;;;;;16.41;100.00;101778.94;10584072;28;20123;-64
2023/10/09 08:24:40;;;;;;;1999.90;999.90;;;;;;;16.62;100.00;101860.41;10569270;28;20131;-64
2023/10/09 08:29:47;;;;;;;1999.90;999.90;;;;;;;16.71;100.00;101854.53;10583675;28;20075;-64
2023/10/09 08:34:53;;;;;;;1999.90;999.90;;;;;;;16.94;100.00;101858.28;10582841;28;20065;-64
2023/10/09 08:39:58;;;;;;;1999.90;999.90;;;;;;;16.80;100.00;101866.28;10582741;28;20492;-64
2023/10/09 08:45:05;;;;;;;1999.90;999.90;;;;;;;16.96;100.00;101868.75;10583143;28;20047;-64
2023/10/09 08:50:13;;;;;;;1999.90;999.90;;;;;;;17.11;100.00;101840.41;10564941;28;20094;-69
2023/10/09 08:55:18;;;;;;;1999.90;999.90;;;;;;;17.48;100.00;101829.91;10564966;28;20126;-63
2023/10/09 09:00:23;;;;;;;1999.90;999.90;;;;;;;17.66;100.00;101841.03;10565105;28;20071;-63
2023/10/09 09:05:28;;;;;;;1999.90;999.90;;;;;;;17.58;100.00;101860.91;10582554;28;20082;-63
2023/10/09 09:10:39;;;;;;;1999.90;999.90;;;;;;;17.79;100.00;101850.63;10581922;28;20126;-63
2023/10/09 09:15:41;;;;;;;1999.90;999.90;;;;;;;17.79;100.00;101858.56;10582348;28;20047;-63
2023/10/09 09:20:47;;;;;;;1999.90;999.90;;;;;;;18.42;100.00;101886.81;10547659;28;20052;-63
2023/10/09 09:25:59;;;;;;;1999.90;999.90;;;;;;;18.94;100.00;101901.53;10563801;28;20081;-63
2023/10/09 09:31:13;;;;;;;1999.90;999.90;;;;;;;18.46;100.00;101886.47;10581283;28;20478;-63
2023/10/09 09:36:16;;;;;;;1999.90;999.90;;;;;;;18.57;100.00;101888.34;10581932;28;20050;-63
2023/10/09 09:41:24;;;;;;;1999.90;999.90;;;;;;;18.89;100.00;101882.47;10581746;28;20118;-63
2023/10/09 09:46:34;;;;;;;1999.90;999.90;;;;;;;18.32;100.00;101903.38;10581041;28;20105;-63
2023/10/09 09:51:37;;;;;;;1999.90;999.90;;;;;;;18.59;100.00;101906.78;10563538;28;20058;-63
2023/10/09 09:56:50;;;;;;;1999.90;999.90;;;;;;;18.54;100.00;101912.41;10581464;28;20051;-63
2023/10/09 10:01:57;;;;;;;1999.90;999.90;;;;;;;19.03;100.00;101900.84;10580731;28;20508;-63
2023/10/09 10:07:08;;;;;;;1999.90;999.90;;;;;;;18.95;100.00;101903.22;10563725;28;20086;-63
2023/10/09 10:12:11;;;;;;;;;;;;;;;19.02;100.00;101906.28;10580969;28;20475;-63
2023/10/09 10:17:16;;;;;;;1999.90;999.90;;;;;;;19.19;100.00;101900.50;10562446;28;20425;-63
2023/10/09 10:22:31;;;;;;;1999.90;999.90;;;;;;;19.47;100.00;101901.06;10563382;28;20055;-63
2023/10/09 10:27:44;;;;;;;1999.90;999.90;;;;;;;19.22;100.00;101894.97;10571638;28;20061;-63
2023/10/09 10:32:53;;;;;;;1999.90;999.90;;;;;;;19.47;100.00;101895.75;10588389;28;20051;-63
2023/10/09 10:43:47;;;;;;;1999.90;999.90;;;;;;;20.31;97.58;101888.19;10588104;28;20052;-63
2023/10/09 10:48:59;;;;;;;1999.90;999.90;;;;;;;21.03;92.66;101888.50;10574244;28;20047;-63
2023/10/09 10:54:28;;;;;;;1999.90;999.90;;;;;;;21.45;90.12;101899.13;10586911;28;20082;-63
2023/10/09 10:59:26;;;;;;;1999.90;999.90;;;;;;;21.29;89.34;101903.13;10586680;28;20044;-63
2023/10/09 11:09:59;;;;;;;1999.90;999.90;;;;;;;23.64;81.85;101890.03;10568532;28;20047;-63
2023/10/09 11:15:29;;;;;;;1999.90;999.90;;;;;;;22.35;83.12;101892.19;10586824;28;20051;-63
2023/10/09 11:20:32;;;;;;;1999.90;999.90;;;;;;;22.63;83.46;101874.50;10585900;28;20043;-63
2023/10/09 11:25:35;;;;;;;1999.90;999.90;;;;;;;22.11;84.93;101872.03;10568561;28;20051;-63
2023/10/09 11:30:40;;;;;;;1999.90;999.90;;;;;;;22.18;84.29;101878.50;10567428;28;20496;-63
2023/10/09 11:35:57;;;;;;;1999.90;999.90;;;;;;;22.06;84.68;101879.63;10585563;28;20580;-63
2023/10/09 11:41:18;;;;;;;1999.90;999.90;;;;;;;21.06;87.00;101875.78;10567782;28;20049;-63
2023/10/09 11:57:11;;;;;;;1999.90;999.90;;;;;;;21.35;89.81;101896.44;10508260;28;20075;-63
2023/10/09 12:02:13;;;;;;;1999.90;999.90;;;;;;;21.59;88.69;101879.34;10542008;28;20412;-63
2023/10/09 12:07:16;;;;;;;1999.90;999.90;;;;;;;21.65;89.52;101878.78;10542417;28;20122;-63
2023/10/09 12:12:18;;;;;;;1999.90;999.90;;;;;;;21.91;88.75;101873.00;10541508;28;20505;-64
2023/10/09 12:17:25;;;;;;;1999.90;999.90;;;;;;;21.10;91.38;101889.69;10542054;28;20122;-63
2023/10/09 12:22:29;;;;;;;1999.90;999.90;;;;;;;20.94;89.65;101874.16;10541929;28;20044;-63
2023/10/09 12:27:31;;;;;;;1999.90;999.90;;;;;;;21.38;89.28;101877.50;10541700;28;20048;-63
2023/10/09 12:32:36;;;;;;;1999.90;999.90;;;;;;;21.31;87.37;101865.69;10540790;28;20051;-63
2023/10/09 12:37:40;;;;;;;1999.90;999.90;;;;;;;20.59;88.75;101857.50;10540637;28;20507;-63
2023/10/09 12:42:43;;;;;;;1999.90;999.90;;;;;;;21.67;85.93;101851.03;10541207;28;20072;-61
2023/10/09 12:47:47;;;;;;;1999.90;999.90;;;;;;;21.69;86.73;101849.06;10540438;28;20048;-62
2023/10/09 12:52:50;;;;;;;1999.90;999.90;;;;;;;21.23;87.94;101852.19;10570137;28;20555;-62
2023/10/09 12:57:53;;;;;;;1999.90;999.90;;;;;;;21.39;88.43;101857.06;10582829;28;20100;-61
2023/10/09 13:02:55;;;;;;;1999.90;999.90;;;;;;;21.53;89.80;101854.03;10582673;28;20048;-61
2023/10/09 13:07:57;;;;;;;1999.90;999.90;;;;;;;21.09;89.66;101858.72;10581929;28;20044;-61
2023/10/09 13:13:00;;;;;;;1999.90;999.90;;;;;;;20.88;89.46;101867.56;10581676;28;20122;-61
2023/10/09 13:18:05;;;;;;;1999.90;999.90;;;;;;;20.88;91.54;101872.00;10582275;28;20082;-61
2023/10/09 13:23:14;;;;;;;1999.90;999.90;;;;;;;21.29;89.82;101872.97;10581687;28;20416;-61
2023/10/09 13:28:20;;;;;;;1999.90;999.90;;;;;;;21.65;87.45;101878.78;10581467;28;20112;-62
2023/10/09 13:33:23;;;;;;;1999.90;999.90;;;;;;;21.71;83.86;101880.91;10581277;28;20476;-61
2023/10/09 13:38:25;;;;;;;1999.90;999.90;;;;;;;21.28;84.13;101877.47;10581894;28;20075;-61
2023/10/09 13:43:28;;;;;;;1999.90;999.90;;;;;;;21.58;85.37;101866.97;10581719;28;20044;-61
2023/10/09 13:48:37;;;;;;;1999.90;999.90;;;;;;;22.50;80.74;101860.59;10581035;28;20537;-61
2023/10/09 13:53:47;;;;;;;1999.90;999.90;;;;;;;21.94;82.34;101860.22;10580683;28;20478;-61
2023/10/09 13:58:51;;;;;;;1999.90;999.90;;;;;;;21.97;81.59;101867.94;10567839;28;20047;-62
2023/10/09 14:09:05;;;;;;;;;;;;;;;21.54;83.67;101857.56;10103190;29;20057;-62
2023/10/09 14:14:09;;;;;;;1999.90;999.90;;;;;;;21.35;85.76;101864.47;10097504;29;19930;-62
2023/10/09 14:19:20;;;;;;;1999.90;999.90;;;;;;;20.96;87.82;101858.91;10096818;29;20057;-62
2023/10/09 14:24:32;;;;;;;1999.90;999.90;;;;;;;21.01;88.56;101863.84;10097290;29;20053;-63
2023/10/09 14:29:37;;;;;;;1999.90;999.90;;;;;;;20.53;91.74;101859.84;10096970;29;20059;-62
2023/10/09 14:34:49;;;;;;;1999.90;999.90;;;;;;;20.53;91.77;101860.66;10096331;29;20049;-62
2023/10/09 14:39:52;;;;;;;1999.90;999.90;;;;;;;20.47;90.81;101855.84;10110327;29;20053;-62
2023/10/09 14:44:58;;;;;;;1999.90;999.90;;;;;;;20.55;91.09;101861.38;10096581;29;20049;-62
2023/10/09 14:50:04;;;;;;;1999.90;999.90;;;;;;;20.32;92.57;101857.94;10095783;29;20449;-62
2023/10/09 14:55:08;;;;;;;1999.90;999.90;;;;;;;20.36;92.53;101863.91;10095685;29;20053;-62
2023/10/09 15:00:15;;;;;;;1999.90;999.90;;;;;;;20.30;91.72;101861.72;10096123;29;20045;-62
2023/10/09 15:05:18;;;;;;;1999.90;999.90;;;;;;;20.30;94.18;101864.38;10095706;29;20061;-62
2023/10/09 15:10:23;;;;;;;1999.90;999.90;;;;;;;20.09;95.20;101861.66;10095103;29;20049;-62
2023/10/09 15:15:27;;;;;;;1999.90;999.90;;;;;;;20.26;96.04;101862.94;10109717;29;20053;-62
2023/10/09 15:20:31;;;;;;;1999.90;999.90;;;;;;;20.30;96.33;101864.38;10095469;29;20049;-62
2023/10/09 15:25:34;;;;;;;1999.90;999.90;;;;;;;20.04;97.12;101862.88;10094786;29;20410;-62
2023/10/09 15:30:40;;;;;;;1999.90;999.90;;;;;;;20.14;97.51;101860.31;10109402;29;20132;-62
2023/10/09 15:35:46;;;;;;;1999.90;999.90;;;;;;;20.11;99.52;101855.25;10108429;29;20057;-62
2023/10/09 15:40:49;;;;;;;1999.90;999.90;;;;;;;20.05;97.62;101861.06;10094909;29;20052;-62
2023/10/09 15:45:51;;;;;;;1999.90;999.90;;;;;;;19.86;100.00;101854.56;10094079;29;20052;-62
2023/10/09 15:50:53;;;;;;;1999.90;999.90;;;;;;;19.68;100.00;101853.34;10108885;29;20060;-62
2023/10/09 15:55:57;;;;;;;1999.90;999.90;;;;;;;19.42;100.00;101853.59;10108776;29;20049;-62
2023/10/09 16:00:59;;;;;;;1999.90;999.90;;;;;;;19.55;100.00;101864.13;10093695;29;20128;-62
2023/10/09 16:06:04;;;;;;;1999.90;999.90;;;;;;;19.52;100.00;101867.00;10108044;29;20141;-62
2023/10/09 16:11:07;;;;;;;1999.90;999.90;;;;;;;19.21;100.00;101865.88;10093935;29;20045;-62
2023/10/09 16:16:10;;;;;;;1999.90;999.90;;;;;;;19.31;100.00;101873.00;10093916;29;20059;-62
2023/10/09 16:21:12;;;;;;;1999.90;999.90;;;;;;;19.21;100.00;101879.16;10106331;29;20053;-62
2023/10/09 16:26:16;;;;;;;1999.90;999.90;;;;;;;19.20;100.00;101891.59;10093580;29;20057;-62
2023/10/09 16:31:19;;;;;;;1999.90;999.90;;;;;;;19.13;100.00;101895.66;10092768;29;20100;-62
2023/10/09 16:36:21;;;;;;;1999.90;999.90;;;;;;;18.85;100.00;101903.06;10092670;29;20518;-62
2023/10/09 16:41:25;;;;;;;1999.90;999.90;;;;;;;19.06;100.00;101902.41;10092530;29;20410;-62
2023/10/09 16:46:28;;;;;;;1999.90;999.90;;;;;;;18.98;100.00;101910.97;10092984;29;20057;-62
2023/10/09 16:51:30;;;;;;;1999.90;999.90;;;;;;;18.87;100.00;101914.41;10092783;29;20049;-62
2023/10/09 16:56:33;;;;;;;1999.90;999.90;;;;;;;18.53;100.00;101919.53;10092269;29;20053;-62
2023/10/09 17:01:36;;;;;;;1999.90;999.90;;;;;;;18.54;100.00;101928.34;10092539;29;20053;-62
2023/10/09 17:06:39;;;;;;;1999.90;999.90;;;;;;;18.56;100.00;101926.44;10091710;29;20094;-62
2023/10/09 17:11:41;;;;;;;1999.90;999.90;;;;;;;18.55;100.00;101930.03;10106551;29;20064;-62
2023/10/09 17:16:44;;;;;;;1999.90;999.90;;;;;;;18.61;100.00;101948.16;10091615;29;20095;-62
2023/10/09 17:21:49;;;;;;;1999.90;999.90;;;;;;;18.61;100.00;101942.00;10092088;29;20124;-62
2023/10/09 17:26:55;;;;;;;1999.90;999.90;;;;;;;18.59;100.00;101955.34;10091286;29;20049;-62
2023/10/09 17:31:57;;;;;;;1999.90;999.90;;;;;;;18.55;100.00;101949.44;10091682;29;20049;-69
2023/10/09 17:37:00;;;;;;;1999.90;999.90;;;;;;;18.35;100.00;101950.03;10112872;29;20053;-64
2023/10/09 17:42:04;;;;;;;1999.90;999.90;;;;;;;18.41;100.00;101951.41;10098343;29;20100;-64
2023/10/09 17:47:07;;;;;;;1999.90;999.90;;;;;;;18.18;100.00;101968.00;10098206;29;20053;-64
2023/10/09 17:52:11;;;;;;;1999.90;999.90;;;;;;;18.19;100.00;101974.16;10098179;29;20048;-64
2023/10/09 17:57:14;;;;;;;1999.90;999.90;;;;;;;18.25;100.00;101973.72;10112096;29;20057;-64
2023/10/09 18:02:16;;;;;;;1999.90;999.90;;;;;;;18.14;100.00;101978.91;10112112;29;20053;-64
2023/10/09 18:07:23;;;;;;;1999.90;999.90;;;;;;;18.19;100.00;101980.31;10097207;29;20140;-64
2023/10/09 18:12:25;;;;;;;1999.90;999.90;;;;;;;18.23;100.00;101967.69;10096354;29;20049;-64
2023/10/09 18:17:28;;;;;;;1999.90;999.90;;;;;;;18.17;100.00;101971.63;10111758;29;20057;-64
2023/10/09 18:22:31;;;;;;;1999.90;999.90;;;;;;;17.98;100.00;101974.72;10097356;29;20133;-64
2023/10/09 18:27:34;;;;;;;1999.90;999.90;;;;;;;18.05;100.00;101985.72;10097165;29;20056;-64
2023/10/09 18:32:36;;;;;;;1999.90;999.90;;;;;;;18.08;100.00;101979.38;10096909;29;20049;-64
2023/10/09 18:37:39;;;;;;;1999.90;999.90;;;;;;;17.97;100.00;101991.56;10096786;29;20049;-64
2023/10/09 18:42:42;;;;;;;1999.90;999.90;;;;;;;17.88;100.00;101986.91;10094972;29;20136;-64
2023/10/09 18:47:45;;;;;;;1999.90;999.90;;;;;;;17.83;100.00;101981.88;10109857;29;20061;-67
2023/10/09 18:52:51;;;;;;;1999.90;999.90;;;;;;;17.65;100.00;101983.16;10095741;29;20454;-64
2023/10/09 18:57:54;;;;;;;1999.90;999.90;;;;;;;17.54;100.00;101996.31;10095697;29;20139;-64
2023/10/09 19:02:59;;;;;;;1999.90;999.90;;;;;;;17.49;100.00;101996.59;10094959;29;20077;-64
2023/10/09 19:08:02;;;;;;;1999.90;999.90;;;;;;;17.71;100.00;101990.69;10095111;29;20136;-64
2023/10/09 19:13:10;;;;;;;1999.90;999.90;;;;;;;17.73;100.00;101990.59;10095113;29;20491;-65
2023/10/09 19:18:12;;;;;;;1999.90;999.90;;;;;;;17.62;100.00;101986.88;10095685;29;20080;-64
2023/10/09 19:23:15;;;;;;;1999.90;999.90;;;;;;;17.61;100.00;101990.47;10094975;29;20128;-64
2023/10/09 19:28:17;;;;;;;1999.90;999.90;;;;;;;17.60;100.00;101994.09;10094744;29;20137;-64
2023/10/09 19:33:19;;;;;;;1999.90;999.90;;;;;;;17.68;100.00;101996.19;10109266;29;20124;-64
2023/10/09 19:38:23;;;;;;;1999.90;999.90;;;;;;;17.65;100.00;101991.09;10109242;29;20060;-64
2023/10/09 19:43:25;;;;;;;1999.90;999.90;;;;;;;17.61;100.00;101994.94;10094282;29;20458;-64
2023/10/09 19:48:28;;;;;;;1999.90;999.90;;;;;;;17.71;100.00;102000.44;10094138;29;20413;-64
2023/10/09 19:53:30;;;;;;;1999.90;999.90;;;;;;;17.60;100.00;102003.81;10094496;29;20049;-64
2023/10/09 19:58:33;;;;;;;1999.90;999.90;;;;;;;17.62;100.00;102005.41;10094217;29;20061;-64
2023/10/09 20:03:35;;;;;;;1999.90;999.90;;;;;;;17.52;100.00;102000.88;10093704;29;20053;-64
2023/10/09 20:08:38;;;;;;;1999.90;999.90;;;;;;;17.39;100.00;102008.78;10093366;29;20466;-65
2023/10/09 20:13:44;;;;;;;1999.90;999.90;;;;;;;17.37;100.00;102013.31;10108229;29;20077;-64
2023/10/09 20:18:46;;;;;;;1999.90;999.90;;;;;;;17.35;100.00;102013.44;10093156;29;20490;-65
2023/10/09 20:23:49;;;;;;;1999.90;999.90;;;;;;;17.14;100.00;102004.25;10093664;29;20132;-65
2023/10/09 20:28:51;;;;;;;1999.90;999.90;;;;;;;17.30;100.00;102010.25;10093497;29;20057;-65
2023/10/09 20:33:57;;;;;;;1999.90;999.90;;;;;;;17.14;100.00;102012.19;10092663;29;20580;-65
2023/10/09 20:38:59;;;;;;;1999.90;999.90;;;;;;;17.17;100.00;102012.00;10093174;29;20057;-65
2023/10/09 20:44:05;;;;;;;1999.90;999.90;;;;;;;16.93;100.00;102020.59;10093089;29;20077;-64
2023/10/09 20:49:09;;;;;;;1999.90;999.90;;;;;;;16.86;100.00;102021.94;10092925;29;20060;-65
2023/10/09 20:54:12;;;;;;;1999.90;999.90;;;;;;;16.80;100.00;102019.66;10092113;29;20136;-65
2023/10/09 20:59:17;;;;;;;1999.90;999.90;;;;;;;16.62;100.00;102026.97;10106633;29;20057;-65
2023/10/09 21:04:19;;;;;;;1999.90;999.90;;;;;;;16.50;100.00;102028.59;10091827;29;20499;-65
2023/10/09 21:09:22;;;;;;;1999.90;999.90;;;;;;;16.59;100.00;102027.16;10089709;29;20075;-65
2023/10/09 21:14:25;;;;;;;1999.90;999.90;;;;;;;16.53;100.00;102039.81;10092299;29;20053;-65
2023/10/09 21:19:28;;;;;;;1999.90;999.90;;;;;;;16.47;100.00;102031.44;10092156;29;20059;-64
2023/10/09 21:24:30;;;;;;;1999.90;999.90;;;;;;;16.38;100.00;102042.59;10092008;29;20049;-65
2023/10/09 21:29:33;;;;;;;1999.90;999.90;;;;;;;16.23;100.00;102047.03;10091847;29;20057;-65
2023/10/09 21:34:35;;;;;;;1999.90;999.90;;;;;;;16.21;100.00;102057.69;10091720;29;20045;-65
2023/10/09 21:39:38;;;;;;;1999.90;999.90;;;;;;;16.32;100.00;102057.00;10091722;29;20053;-64
2023/10/09 21:44:40;;;;;;;1999.90;999.90;;;;;;;16.25;100.00;102059.19;10091601;29;20053;-65
2023/10/09 21:49:44;;;;;;;1999.90;999.90;;;;;;;16.51;100.00;102047.00;10091477;29;20049;-65
2023/10/09 21:54:46;;;;;;;1999.90;999.90;;;;;;;16.57;100.00;102042.28;10091250;29;20049;-65
2023/10/09 21:59:48;;;;;;;1999.90;999.90;;;;;;;16.55;100.00;102033.59;10090601;29;20064;-65
2023/10/09 22:04:53;;;;;;;1999.90;999.90;;;;;;;16.60;100.00;102031.50;10090288;29;20506;-65
2023/10/09 22:09:55;;;;;;;1999.90;999.90;;;;;;;16.65;100.00;102029.41;10090406;29;20064;-65
2023/10/09 22:15:00;;;;;;;1999.90;999.90;;;;;;;16.70;100.00;102033.47;10105157;29;20056;-65
2023/10/09 22:20:05;;;;;;;1999.90;999.90;;;;;;;16.73;100.00;102032.44;10094113;29;20057;-65
2023/10/09 22:25:07;;;;;;;1999.90;999.90;;;;;;;16.68;100.00;102026.59;10096666;29;20061;-65
2023/10/09 22:30:12;;;;;;;1999.90;999.90;;;;;;;16.72;100.00;102030.72;10097076;29;20057;-65
2023/10/09 22:35:14;;;;;;;1999.90;999.90;;;;;;;16.57;100.00;102024.59;10095234;29;20057;-65
2023/10/09 22:40:25;;;;;;;1999.90;999.90;;;;;;;16.51;100.00;102022.38;10096839;29;20064;-65
2023/10/09 22:45:31;;;;;;;;;;;;;;;16.49;100.00;102011.91;10096495;29;20388;-65
2023/10/09 22:50:37;;;;;;;1999.90;999.90;;;;;;;16.46;100.00;102016.53;10097003;29;20571;-64
2023/10/09 22:55:44;;;;;;;1999.90;999.90;;;;;;;16.52;100.00;102017.00;10096417;29;20064;-65
2023/10/09 23:00:49;;;;;;;1999.90;999.90;;;;;;;16.42;100.00;102020.28;10110148;29;20056;-65
2023/10/09 23:05:56;;;;;;;1999.90;999.90;;;;;;;16.40;100.00;102017.75;10095795;29;20088;-65
2023/10/09 23:11:14;;;;;;;1999.90;999.90;;;;;;;16.22;100.00;102029.47;10095251;29;20517;-65
2023/10/09 23:16:24;;;;;;;1999.90;999.90;;;;;;;16.23;100.00;102023.25;10095785;29;20053;-65
2023/10/09 23:21:34;;;;;;;1999.90;999.90;;;;;;;16.11;100.00;102019.56;10108838;29;20055;-65
2023/10/09 23:26:53;;;;;;;1999.90;999.90;;;;;;;15.94;100.00;102017.97;10108988;29;20290;-65
2023/10/09 23:32:22;;;;;;;1999.90;999.90;;;;;;;15.86;100.00;102018.41;10094109;29;20402;-65
2023/10/09 23:37:35;;;;;;;1999.90;999.90;;;;;;;15.89;100.00;102028.78;10107386;29;20065;-65
2023/10/09 23:42:37;;;;;;;1999.90;999.90;;;;;;;15.90;100.00;102029.63;10107438;29;20059;-65
2023/10/09 23:47:40;;;;;;;1999.90;999.90;;;;;;;15.79;100.00;102033.78;10094833;29;20049;-65
2023/10/09 23:52:46;;;;;;;1999.90;999.90;;;;;;;15.76;100.00;102030.47;10108010;29;20049;-65
2023/10/09 23:57:57;;;;;;;1999.90;999.90;;;;;;;15.93;100.00;102026.81;10108648;29;20136;-65
